Portada
METAR-TAF:

METAR-TAF

Aeroports :

Champaign-Urbana, Illinois, Estats Units d'Amèrica

latitud: 40-01-56N, longitud: 088-16-24W, altitud: 229 m

Observació

L'informe es va fer fa 8 minuts, a les 16:53 UTC
Vent 16 kt del Oest/Sud-Oest
Temperatura 31°C
Humitat 40%
Pressió 1016 hPa
Visibilitat: 16.1 km
Cel clar

METAR: KCMI 021653Z 25016KT 10SM CLR 31/16 A3000 RMK AO2 SLP151 T03060156

Hora: 12:01 (17:01 UTC)

Pronòstic

L'informe es va fer fa 4 hores i 57 minuts, a les 12:04 UTC
Pronòstic vàlid del 02 a les 12 UTC al 03 a les 12 UTC
Vent 8 kt del Sud-Oest
Visibilitat: 10 km
Cel clar
A partir de les 02 a les 1500 UTC
Vent 13 kt del Sud-Oest amb ràfegues de 23 kt
Visibilitat: 10 km
Núvols disperses a una alçada de 25000 ft
A partir de les 02 a les 2300 UTC
Vent 9 kt del Sud-Oest
Visibilitat: 10 km
Núvols disperses a una alçada de 25000 ft

TAF: KCMI 021204Z 0212/0312 22008KT P6SM SKC FM021500 23013G23KT P6SM SCT250 FM022300 22009KT P6SM SCT250

Observacions i pronòstics meteorològics de més de 4000 aeroports (METAR i TAF).

Les estacions disponibles són els punts grocs i vermells al mapa.

Posi el ratolí al punt desitjat per veure el nom de l'estació.

Feu clic per veure les observacions i els pronòstics meteorològics.

Per canviar el mapa: feu clic els botons verds amb una creu de color negre per apropar; al botó verd amb un guió per allunyar la imatge; o en les fletxes verdes per a mapes adjacents.


METAR-TAF: